createdAt,value
2018-10-05T00:01:01.270Z,12.12
2018-10-05T00:05:01.982Z,12.03
2018-10-05T00:07:32.192Z,12.02
2018-10-05T00:10:02.213Z,11.95
2018-10-05T00:12:32.020Z,11.90
2018-10-05T00:15:01.386Z,11.86
2018-10-05T00:17:31.201Z,11.83
2018-10-05T00:20:01.173Z,11.80
2018-10-05T00:22:31.004Z,11.75
2018-10-05T00:25:00.964Z,11.72
2018-10-05T00:27:30.467Z,11.72
2018-10-05T00:30:00.202Z,11.71
2018-10-05T00:32:29.876Z,11.69
2018-10-05T00:34:59.465Z,11.67
2018-10-05T00:37:29.207Z,11.61
2018-10-05T00:39:58.985Z,11.56
2018-10-05T00:42:28.338Z,11.51
2018-10-05T00:44:58.232Z,11.47
2018-10-05T00:47:28.192Z,11.48
2018-10-05T00:49:57.782Z,11.55
2018-10-05T00:52:27.290Z,11.54
2018-10-05T00:54:55.584Z,11.53
2018-10-05T00:57:25.314Z,11.45
2018-10-05T00:59:55.169Z,11.43
2018-10-05T01:02:24.679Z,11.42
2018-10-05T01:04:54.272Z,11.40
2018-10-05T01:07:24.186Z,11.38
2018-10-05T01:09:53.787Z,11.37
2018-10-05T01:12:23.312Z,11.32
2018-10-05T01:14:51.710Z,11.38
2018-10-05T01:17:21.273Z,11.35
2018-10-05T01:19:50.040Z,11.36
2018-10-05T01:22:19.508Z,11.32
2018-10-05T01:24:49.306Z,11.32
2018-10-05T01:27:19.203Z,11.33
2018-10-05T01:29:48.785Z,11.31
2018-10-05T01:32:18.303Z,11.29
2018-10-05T01:34:46.710Z,11.24
2018-10-05T01:37:16.325Z,11.21
2018-10-05T01:39:46.210Z,11.22
2018-10-05T01:42:17.330Z,11.19
2018-10-05T01:44:47.355Z,11.16
2018-10-05T01:47:17.198Z,11.07
2018-10-05T01:49:46.990Z,11.03
2018-10-05T01:52:16.379Z,11.00
2018-10-05T01:54:46.187Z,10.99
2018-10-05T01:57:15.789Z,10.97
2018-10-05T01:59:45.320Z,10.96
2018-10-05T02:02:15.277Z,10.95
2018-10-05T02:04:43.691Z,10.93
2018-10-05T02:07:13.322Z,10.94
2018-10-05T02:09:43.021Z,10.89
2018-10-05T02:12:12.460Z,10.84
2018-10-05T02:14:42.279Z,10.84
2018-10-05T02:17:10.514Z,10.86
2018-10-05T02:19:40.219Z,10.84
2018-10-05T02:22:09.998Z,10.83
2018-10-05T02:24:39.386Z,10.70
2018-10-05T02:27:09.182Z,10.75
2018-10-05T02:29:38.783Z,10.71
2018-10-05T02:32:08.539Z,10.66
2018-10-05T02:34:38.237Z,10.72
2018-10-05T02:37:07.798Z,10.78
2018-10-05T02:39:37.380Z,10.80
2018-10-05T02:42:07.181Z,10.76
2018-10-05T02:44:36.759Z,10.78
2018-10-05T02:47:06.327Z,10.80
2018-10-05T02:51:52.064Z,10.83
2018-10-05T02:54:21.782Z,10.83
2018-10-05T02:56:51.299Z,10.84
2018-10-05T02:59:19.833Z,10.85
2018-10-05T03:02:00.321Z,10.82
2018-10-05T03:04:30.183Z,10.81
2018-10-05T03:06:59.798Z,10.76
2018-10-05T03:09:29.320Z,10.74
2018-10-05T03:11:58.671Z,10.68
2018-10-05T03:14:28.279Z,10.60
2018-10-05T03:16:58.021Z,10.61
2018-10-05T03:19:27.442Z,10.64
2018-10-05T03:21:57.188Z,10.58
2018-10-05T03:24:27.176Z,10.55
2018-10-05T03:26:56.802Z,10.53
2018-10-05T03:29:26.334Z,10.51
2018-10-05T03:31:56.197Z,10.52
2018-10-05T03:34:25.778Z,10.50
2018-10-05T03:36:55.291Z,10.51
2018-10-05T03:39:24.058Z,10.49
2018-10-05T03:41:53.567Z,10.50
2018-10-05T03:44:23.235Z,10.50
2018-10-05T03:46:52.801Z,10.50
2018-10-05T03:49:22.310Z,10.52
2018-10-05T03:51:50.700Z,10.52
2018-10-05T03:54:20.911Z,10.54
2018-10-05T03:58:39.324Z,10.68
2018-10-05T04:01:09.321Z,10.62
2018-10-05T04:03:39.168Z,10.57
2018-10-05T04:06:08.764Z,10.55
2018-10-05T04:08:38.317Z,10.54
2018-10-05T04:11:08.180Z,10.56
2018-10-05T04:13:37.786Z,10.54
2018-10-05T04:16:07.313Z,10.49
2018-10-05T04:18:36.972Z,10.43
2018-10-05T04:21:06.457Z,10.42
2018-10-05T04:23:36.528Z,10.37
2018-10-05T04:26:06.316Z,10.31
2018-10-05T04:28:36.031Z,10.24
2018-10-05T04:31:05.537Z,10.17
2018-10-05T04:33:35.311Z,10.17
2018-10-05T04:36:04.778Z,10.25
2018-10-05T04:38:34.324Z,10.17
2018-10-05T04:41:04.196Z,10.11
2018-10-05T04:43:34.056Z,10.11
2018-10-05T04:46:02.866Z,10.12
2018-10-05T04:48:32.320Z,10.11
2018-10-05T04:51:02.197Z,10.05
2018-10-05T04:53:31.649Z,10.03
2018-10-05T04:56:01.265Z,9.97
2018-10-05T04:58:30.978Z,9.95
2018-10-05T05:01:00.435Z,9.93
2018-10-05T05:03:30.262Z,9.90
2018-10-05T05:06:00.200Z,9.88
2018-10-05T05:08:29.980Z,9.85
2018-10-05T05:10:59.342Z,9.84
2018-10-05T05:13:29.204Z,9.80
2018-10-05T05:15:59.260Z,9.79
2018-10-05T05:18:29.316Z,9.82
2018-10-05T05:20:58.179Z,9.82
2018-10-05T05:23:28.303Z,9.83
2018-10-05T05:25:57.300Z,9.86
2018-10-05T05:30:19.324Z,9.89
2018-10-05T05:32:49.353Z,9.89
2018-10-05T05:35:19.316Z,9.90
2018-10-05T05:37:49.328Z,9.89
2018-10-05T05:40:19.439Z,9.94
2018-10-05T05:42:49.397Z,9.94
2018-10-05T05:45:19.319Z,9.99
2018-10-05T05:47:49.324Z,10.05
2018-10-05T05:50:19.314Z,10.09
2018-10-05T05:52:49.314Z,10.12
2018-10-05T05:55:19.365Z,10.12
2018-10-05T05:57:49.308Z,10.09
2018-10-05T06:00:19.316Z,10.11
2018-10-05T06:02:49.317Z,10.16
2018-10-05T06:05:19.325Z,10.22
2018-10-05T06:07:49.312Z,10.26
2018-10-05T06:10:19.328Z,10.34
2018-10-05T06:12:49.294Z,10.40
2018-10-05T06:15:19.341Z,10.44
2018-10-05T06:17:49.313Z,10.54
2018-10-05T06:20:19.323Z,10.66
2018-10-05T06:22:49.324Z,10.75
2018-10-05T06:25:19.321Z,10.84
2018-10-05T06:27:49.313Z,10.91
2018-10-05T06:30:18.216Z,11.08
2018-10-05T06:32:48.357Z,11.17
2018-10-05T06:35:18.366Z,11.30
2018-10-05T06:37:48.321Z,11.41
2018-10-05T06:40:18.306Z,11.54
2018-10-05T06:42:48.305Z,11.71
2018-10-05T06:45:18.309Z,11.84
2018-10-05T06:47:47.241Z,11.99
2018-10-05T06:50:17.518Z,12.10
2018-10-05T06:52:47.362Z,12.22
2018-10-05T06:55:17.357Z,12.38
2018-10-05T06:57:47.340Z,12.56
2018-10-05T07:00:17.657Z,12.71
2018-10-05T07:02:47.354Z,13.00
2018-10-05T07:05:17.324Z,13.40
2018-10-05T07:07:47.438Z,13.91
2018-10-05T07:10:17.926Z,14.43
2018-10-05T07:12:47.451Z,14.89
2018-10-05T07:15:17.329Z,15.38
2018-10-05T07:17:47.323Z,15.92
2018-10-05T07:20:17.344Z,16.50
2018-10-05T07:22:47.361Z,17.10
2018-10-05T07:25:17.310Z,17.70
2018-10-05T07:27:47.317Z,18.37
2018-10-05T07:30:17.340Z,19.01
2018-10-05T07:32:47.320Z,19.12
2018-10-05T07:35:17.324Z,19.37
2018-10-05T07:37:47.320Z,19.42
2018-10-05T07:40:17.324Z,19.95
2018-10-05T07:42:47.422Z,20.18
2018-10-05T07:45:18.324Z,20.09
2018-10-05T07:47:48.318Z,19.60
2018-10-05T07:50:19.023Z,19.09
2018-10-05T07:52:49.165Z,19.20
2018-10-05T07:55:19.324Z,19.30
2018-10-05T07:57:49.370Z,19.29
2018-10-05T08:00:19.333Z,19.38
2018-10-05T08:02:49.315Z,19.62
2018-10-05T08:05:19.333Z,19.75
2018-10-05T08:07:49.339Z,19.99
2018-10-05T08:10:19.329Z,21.07
2018-10-05T08:12:49.341Z,22.94
2018-10-05T08:15:19.336Z,24.19
2018-10-05T08:17:49.383Z,25.62
2018-10-05T08:20:20.266Z,26.62
2018-10-05T08:22:49.037Z,27.30
2018-10-05T08:25:18.604Z,27.91
2018-10-05T08:27:48.349Z,28.51
2018-10-05T08:30:18.455Z,29.04
2018-10-05T08:32:48.335Z,29.42
2018-10-05T08:35:18.337Z,29.86
2018-10-05T08:37:48.337Z,29.81
2018-10-05T08:40:18.431Z,29.98
2018-10-05T08:42:48.337Z,30.19
2018-10-05T08:45:18.395Z,30.35
2018-10-05T08:47:48.285Z,30.45
2018-10-05T08:50:17.298Z,30.19
2018-10-05T08:52:46.040Z,30.17
2018-10-05T08:55:16.191Z,30.44
2018-10-05T08:57:46.337Z,30.46
2018-10-05T09:00:16.383Z,30.77
2018-10-05T09:02:46.331Z,31.02
2018-10-05T09:05:16.319Z,31.19
2018-10-05T09:07:46.328Z,31.02
2018-10-05T09:10:16.338Z,30.66
2018-10-05T09:12:46.416Z,30.46
2018-10-05T09:15:16.378Z,29.47
2018-10-05T09:17:46.397Z,29.30
2018-10-05T09:20:16.345Z,29.19
2018-10-05T09:22:46.297Z,28.61
2018-10-05T09:25:16.369Z,27.39
2018-10-05T09:27:46.344Z,26.90
2018-10-05T09:30:16.330Z,26.38
2018-10-05T09:32:46.400Z,25.82
2018-10-05T09:35:16.415Z,25.51
2018-10-05T09:37:46.338Z,25.37
2018-10-05T09:40:16.321Z,25.73
2018-10-05T09:42:46.321Z,26.13
2018-10-05T09:45:16.332Z,26.16
2018-10-05T09:47:47.239Z,25.75
2018-10-05T09:50:16.052Z,25.50
2018-10-05T09:52:46.328Z,25.42
2018-10-05T09:55:16.389Z,25.11
2018-10-05T09:57:46.308Z,24.60
2018-10-05T10:00:21.527Z,24.28
2018-10-05T10:03:55.803Z,24.16
2018-10-05T10:06:25.496Z,24.28
2018-10-05T10:08:55.333Z,24.33
2018-10-05T10:11:25.322Z,24.60
2018-10-05T10:13:55.471Z,24.87
2018-10-05T10:16:25.364Z,25.20
2018-10-05T10:18:55.321Z,25.81
2018-10-05T10:21:25.338Z,25.86
2018-10-05T10:23:55.309Z,25.69
2018-10-05T10:26:25.327Z,25.27
2018-10-05T10:28:55.413Z,25.39
2018-10-05T10:31:25.593Z,25.51
2018-10-05T10:33:55.522Z,25.71
2018-10-05T10:36:25.413Z,25.24
2018-10-05T10:38:58.680Z,25.40
2018-10-05T10:41:28.430Z,25.61
2018-10-05T10:43:59.329Z,25.73
2018-10-05T10:46:29.323Z,25.81
2018-10-05T10:48:59.322Z,26.08
2018-10-05T10:51:29.336Z,26.69
2018-10-05T10:53:59.371Z,27.14
2018-10-05T10:56:29.396Z,27.58
2018-10-05T10:58:59.318Z,28.03
2018-10-05T11:01:29.334Z,28.54
2018-10-05T11:03:59.340Z,29.67
2018-10-05T11:06:29.500Z,30.76
2018-10-05T11:09:00.338Z,31.83
2018-10-05T11:11:30.331Z,32.83
2018-10-05T11:14:00.361Z,33.59
2018-10-05T11:16:30.339Z,34.28
2018-10-05T11:19:00.344Z,34.72
2018-10-05T11:21:30.334Z,34.97
2018-10-05T11:24:00.342Z,35.74
2018-10-05T11:26:29.960Z,36.50
2018-10-05T11:28:59.390Z,37.47
2018-10-05T11:31:29.038Z,38.19
2018-10-05T11:33:58.565Z,38.78
2018-10-05T11:36:28.329Z,39.05
2018-10-05T11:38:57.979Z,39.24
2018-10-05T11:41:27.477Z,39.65
2018-10-05T11:43:57.083Z,39.75
2018-10-05T11:46:27.129Z,39.67
2018-10-05T11:48:57.028Z,39.67
2018-10-05T11:51:27.051Z,40.05
2018-10-05T11:53:57.335Z,39.13
2018-10-05T11:56:27.037Z,39.46
2018-10-05T11:58:57.015Z,39.78
2018-10-05T12:01:27.053Z,40.36
2018-10-05T12:03:57.095Z,40.91
2018-10-05T12:06:25.974Z,40.56
2018-10-05T12:08:55.325Z,40.83
2018-10-05T12:11:24.999Z,40.91
2018-10-05T12:13:54.550Z,40.84
2018-10-05T12:16:24.374Z,40.83
2018-10-05T12:18:54.336Z,40.80
2018-10-05T12:21:24.014Z,41.05
2018-10-05T12:23:54.195Z,40.95
2018-10-05T12:26:22.983Z,40.86
2018-10-05T12:28:53.079Z,41.37
2018-10-05T12:31:22.589Z,41.63
2018-10-05T12:33:52.400Z,41.58
2018-10-05T12:36:22.319Z,41.80
2018-10-05T12:38:52.039Z,42.01
2018-10-05T12:41:22.057Z,42.05
2018-10-05T12:43:52.051Z,42.19
2018-10-05T12:46:22.053Z,42.16
2018-10-05T12:48:52.325Z,41.78
2018-10-05T12:51:22.049Z,41.65
2018-10-05T12:53:52.060Z,41.57
2018-10-05T12:56:22.247Z,41.82
2018-10-05T12:58:50.882Z,41.99
2018-10-05T13:01:20.394Z,41.95
2018-10-05T13:03:50.259Z,42.16
2018-10-05T13:06:19.213Z,41.91
2018-10-05T13:08:47.907Z,42.05
2018-10-05T13:11:17.330Z,41.79
2018-10-05T13:13:46.805Z,42.15
2018-10-05T13:16:16.326Z,42.12
2018-10-05T13:18:46.171Z,42.19
2018-10-05T13:21:15.287Z,42.15
2018-10-05T13:23:44.216Z,42.12
2018-10-05T13:26:13.045Z,42.09
2018-10-05T13:28:43.303Z,42.01
2018-10-05T13:31:13.369Z,42.05
2018-10-05T13:33:43.175Z,42.09
2018-10-05T13:36:11.877Z,41.86
2018-10-05T13:38:41.444Z,42.10
2018-10-05T13:41:11.351Z,41.82
2018-10-05T13:43:41.020Z,41.51
2018-10-05T13:46:11.071Z,41.10
2018-10-05T13:48:41.208Z,40.20
2018-10-05T13:51:09.956Z,39.28
2018-10-05T13:53:39.517Z,37.87
2018-10-05T13:56:09.349Z,36.34
2018-10-05T13:58:38.803Z,35.37
2018-10-05T14:01:08.320Z,34.96
2018-10-05T14:03:37.541Z,34.10
2018-10-05T14:06:07.065Z,33.38
2018-10-05T14:08:36.807Z,32.34
2018-10-05T14:11:06.428Z,31.53
2018-10-05T14:13:36.302Z,31.24
2018-10-05T14:16:06.281Z,30.74
2018-10-05T14:18:36.245Z,30.35
2018-10-05T14:21:04.709Z,29.93
2018-10-05T14:23:34.311Z,29.82
2018-10-05T14:26:04.199Z,29.36
2018-10-05T14:28:33.489Z,29.06
2018-10-05T14:31:03.293Z,29.01
2018-10-05T14:33:33.198Z,28.59
2018-10-05T14:36:02.478Z,28.52
2018-10-05T14:38:32.253Z,28.74
2018-10-05T14:41:00.732Z,28.93
2018-10-05T14:43:30.331Z,28.89
2018-10-05T14:46:00.180Z,29.09
2018-10-05T14:48:29.995Z,29.10
2018-10-05T14:50:59.373Z,29.02
2018-10-05T14:53:29.272Z,29.11
2018-10-05T14:55:59.204Z,29.27
2018-10-05T14:58:28.484Z,29.75
2018-10-05T15:00:58.232Z,30.56
2018-10-05T15:03:26.765Z,31.38
2018-10-05T15:05:56.329Z,31.93
2018-10-05T15:08:26.213Z,31.96
2018-10-05T15:10:54.610Z,32.25
2018-10-05T15:13:24.286Z,32.26
2018-10-05T15:15:54.270Z,32.06
2018-10-05T15:18:24.233Z,32.10
2018-10-05T15:20:52.927Z,31.96
2018-10-05T15:23:22.637Z,31.86
2018-10-05T15:25:52.316Z,31.31
2018-10-05T15:28:22.355Z,30.75
2018-10-05T15:30:52.211Z,29.39
2018-10-05T15:33:21.256Z,28.07
2018-10-05T15:35:50.787Z,27.12
2018-10-05T15:38:20.359Z,26.60
2018-10-05T15:40:50.662Z,26.04
2018-10-05T15:43:20.400Z,25.39
2018-10-05T15:45:50.196Z,24.87
2018-10-05T15:48:19.831Z,24.53
2018-10-05T15:50:49.808Z,24.25
2018-10-05T15:53:19.556Z,23.98
2018-10-05T15:55:49.292Z,23.72
2018-10-05T15:58:19.273Z,23.48
2018-10-05T16:00:49.295Z,23.22
2018-10-05T16:03:19.257Z,22.92
2018-10-05T16:05:49.241Z,22.63
2018-10-05T16:08:19.285Z,22.39
2018-10-05T16:10:49.337Z,22.28
2018-10-05T16:13:19.236Z,22.08
2018-10-05T16:15:47.450Z,21.97
2018-10-05T16:18:17.317Z,21.84
2018-10-05T16:20:47.244Z,21.50
2018-10-05T16:23:15.771Z,21.37
2018-10-05T16:25:45.356Z,21.27
2018-10-05T16:28:15.187Z,21.14
2018-10-05T16:30:45.166Z,21.01
2018-10-05T16:33:14.969Z,20.87
2018-10-05T16:35:44.477Z,20.85
2018-10-05T16:38:14.233Z,20.76
2018-10-05T16:40:43.044Z,20.49
2018-10-05T16:43:12.796Z,20.42
2018-10-05T16:45:42.317Z,20.20
2018-10-05T16:48:12.197Z,20.06
2018-10-05T16:50:42.793Z,19.92
2018-10-05T16:53:12.426Z,19.98
2018-10-05T16:55:42.312Z,19.89
2018-10-05T16:58:12.220Z,19.92
2018-10-05T17:00:42.217Z,19.85
2018-10-05T17:03:12.198Z,19.78
2018-10-05T17:05:42.188Z,19.75
2018-10-05T17:08:12.183Z,19.63
2018-10-05T17:10:42.324Z,19.62
2018-10-05T17:13:12.216Z,19.67
2018-10-05T17:15:42.165Z,19.61
2018-10-05T17:18:11.798Z,19.53
2018-10-05T17:20:41.319Z,19.53
2018-10-05T17:23:11.185Z,19.50
2018-10-05T17:25:41.199Z,19.38
2018-10-05T17:28:11.014Z,19.36
2018-10-05T17:30:40.421Z,19.31
2018-10-05T17:33:10.277Z,19.23
2018-10-05T17:35:40.194Z,19.11
2018-10-05T17:38:10.185Z,19.09
2018-10-05T17:40:39.994Z,19.09
2018-10-05T17:43:48.333Z,19.04
2018-10-05T17:46:18.216Z,19.05
2018-10-05T17:48:48.174Z,19.01
2018-10-05T17:51:17.973Z,18.87
2018-10-05T17:53:47.449Z,18.79
2018-10-05T17:56:17.266Z,18.70
2018-10-05T17:58:47.185Z,18.67
2018-10-05T18:01:17.286Z,18.67
2018-10-05T18:03:47.182Z,18.59
2018-10-05T18:08:41.406Z,18.44
2018-10-05T18:11:11.203Z,18.37
2018-10-05T18:13:40.984Z,18.30
2018-10-05T18:16:10.429Z,18.31
2018-10-05T18:18:40.187Z,18.30
2018-10-05T18:21:10.177Z,18.25
2018-10-05T18:23:39.780Z,18.28
2018-10-05T18:26:09.332Z,18.22
2018-10-05T18:28:39.281Z,18.17
2018-10-05T18:31:09.202Z,18.15
2018-10-05T18:33:38.892Z,18.19
2018-10-05T18:36:08.416Z,18.19
2018-10-05T18:38:38.196Z,18.25
2018-10-05T18:41:08.339Z,18.23
2018-10-05T18:43:38.319Z,18.14
2018-10-05T18:46:08.358Z,18.24
2018-10-05T18:48:38.158Z,18.11
2018-10-05T18:51:07.822Z,18.12
2018-10-05T18:53:37.382Z,18.14
2018-10-05T18:56:18.250Z,18.08
2018-10-05T18:58:48.176Z,18.04
2018-10-05T19:01:17.985Z,17.98
2018-10-05T19:03:47.788Z,18.00
2018-10-05T19:06:17.313Z,18.02
2018-10-05T19:08:47.208Z,17.99
2018-10-05T19:11:16.793Z,17.89
2018-10-05T19:13:46.420Z,17.85
2018-10-05T19:16:16.345Z,17.75
2018-10-05T19:18:46.265Z,17.74
2018-10-05T19:21:15.027Z,17.82
2018-10-05T19:23:44.790Z,17.84
2018-10-05T19:26:14.398Z,17.82
2018-10-05T19:28:44.237Z,17.70
2018-10-05T19:31:14.188Z,17.69
2018-10-05T19:33:43.788Z,17.68
2018-10-05T19:36:13.334Z,17.72
2018-10-05T19:38:43.253Z,17.68
2018-10-05T19:41:13.223Z,17.66
2018-10-05T19:43:43.205Z,17.61
2018-10-05T19:46:13.196Z,17.62
2018-10-05T19:48:43.197Z,17.57
2018-10-05T19:51:13.162Z,17.59
2018-10-05T19:53:43.209Z,17.59
2018-10-05T19:56:13.182Z,17.59
2018-10-05T19:58:43.189Z,17.50
2018-10-05T20:01:13.177Z,17.54
2018-10-05T20:03:43.174Z,17.65
2018-10-05T20:06:13.187Z,17.64
2018-10-05T20:08:43.187Z,17.59
2018-10-05T20:11:13.220Z,17.61
2018-10-05T20:13:43.229Z,17.59
2018-10-05T20:16:13.173Z,17.64
2018-10-05T20:18:43.781Z,17.49
2018-10-05T20:21:13.304Z,17.48
2018-10-05T20:23:43.181Z,17.48
2018-10-05T20:26:13.183Z,17.38
2018-10-05T20:28:43.194Z,17.38
2018-10-05T20:31:13.189Z,17.52
2018-10-05T20:33:43.185Z,17.52
2018-10-05T20:36:13.319Z,17.63
2018-10-05T20:38:43.248Z,17.58
2018-10-05T20:41:13.194Z,17.51
2018-10-05T20:43:43.190Z,17.42
2018-10-05T20:46:13.198Z,17.40
2018-10-05T20:48:42.986Z,17.51
2018-10-05T20:53:03.305Z,17.43
2018-10-05T20:55:33.176Z,17.40
2018-10-05T20:59:14.495Z,17.45
2018-10-05T21:01:44.317Z,17.40
2018-10-05T21:04:14.214Z,17.31
2018-10-05T21:06:44.233Z,17.31
2018-10-05T21:09:14.206Z,17.26
2018-10-05T21:11:43.786Z,17.31
2018-10-05T21:14:13.311Z,17.22
2018-10-05T21:16:43.186Z,17.20
2018-10-05T21:19:12.953Z,17.22
2018-10-05T21:23:38.320Z,17.30
2018-10-05T21:26:08.185Z,17.31
2018-10-05T21:28:37.786Z,17.22
2018-10-05T21:31:07.281Z,17.20
2018-10-05T21:33:37.201Z,17.27
2018-10-05T21:36:07.318Z,17.31
2018-10-05T21:38:37.212Z,17.36
2018-10-05T21:41:07.219Z,17.35
2018-10-05T21:43:37.308Z,17.35
2018-10-05T21:46:07.213Z,17.32
2018-10-05T21:48:36.789Z,17.38
2018-10-05T21:51:06.333Z,17.43
2018-10-05T21:53:37.070Z,17.39
2018-10-05T21:56:06.970Z,17.38
2018-10-05T22:00:05.469Z,17.27
2018-10-05T22:02:36.789Z,17.17
2018-10-05T22:05:07.330Z,17.21
2018-10-05T22:07:37.293Z,17.23
2018-10-05T22:10:06.130Z,17.16
2018-10-05T22:12:36.265Z,17.18
2018-10-05T22:15:06.322Z,17.24
2018-10-05T22:17:36.181Z,17.20
2018-10-05T22:20:05.830Z,17.15
2018-10-05T22:22:35.788Z,17.04
2018-10-05T22:25:05.344Z,17.02
2018-10-05T22:27:35.287Z,17.04
2018-10-05T22:30:03.837Z,16.96
2018-10-05T22:32:33.318Z,16.98
2018-10-05T22:35:03.204Z,16.95
2018-10-05T22:37:32.969Z,17.03
2018-10-05T22:40:02.593Z,17.02
2018-10-05T22:42:32.237Z,17.07
2018-10-05T22:45:01.702Z,17.05
2018-10-05T22:47:31.282Z,16.89
2018-10-05T22:49:59.955Z,16.96
2018-10-05T22:52:29.445Z,16.95
2018-10-05T22:54:59.182Z,16.91
2018-10-05T22:57:28.786Z,16.94
2018-10-05T22:59:58.326Z,16.82
2018-10-05T23:02:28.194Z,16.75
2018-10-05T23:04:57.980Z,16.72
2018-10-05T23:07:27.379Z,16.65
2018-10-05T23:09:57.193Z,16.62
2018-10-05T23:12:26.674Z,16.65
2018-10-05T23:16:34.238Z,16.59
2018-10-05T23:19:05.834Z,16.63
2018-10-05T23:21:35.357Z,16.61
2018-10-05T23:24:05.225Z,16.48
2018-10-05T23:26:34.747Z,16.59
2018-10-05T23:29:04.333Z,16.46
2018-10-05T23:31:34.210Z,16.43
2018-10-05T23:34:03.785Z,16.42
2018-10-05T23:36:33.325Z,16.41
2018-10-05T23:41:15.025Z,16.25
2018-10-05T23:43:45.320Z,16.19
2018-10-05T23:46:16.434Z,16.22
2018-10-05T23:48:46.200Z,16.29
2018-10-05T23:51:15.789Z,16.18
2018-10-05T23:53:45.326Z,16.10
2018-10-05T23:56:15.193Z,16.11
2018-10-05T23:58:44.978Z,16.19
